sensor_id;sensor_type;location;lat;lon;timestamp;pressure;altitude;pressure_sealevel;temperature;humidity
18678;BME280;9469;51.114;13.914;2023-08-20T00:00:24;99058.16;;;24.45;100.00
18678;BME280;9469;51.114;13.914;2023-08-20T00:05:30;99054.81;;;23.97;100.00
18678;BME280;9469;51.114;13.914;2023-08-20T00:10:37;99050.00;;;23.73;100.00
18678;BME280;9469;51.114;13.914;2023-08-20T00:15:47;99043.00;;;23.69;100.00
18678;BME280;9469;51.114;13.914;2023-08-20T00:20:53;99044.38;;;23.41;100.00
18678;BME280;9469;51.114;13.914;2023-08-20T00:26:04;99049.50;;;23.53;100.00
18678;BME280;9469;51.114;13.914;2023-08-20T00:31:15;99051.66;;;23.34;100.00
18678;BME280;9469;51.114;13.914;2023-08-20T00:36:20;99050.19;;;23.40;100.00
18678;BME280;9469;51.114;13.914;2023-08-20T00:41:28;99044.84;;;23.10;100.00
18678;BME280;9469;51.114;13.914;2023-08-20T00:46:35;99047.31;;;23.26;100.00
18678;BME280;9469;51.114;13.914;2023-08-20T00:51:41;99046.22;;;23.34;100.00
18678;BME280;9469;51.114;13.914;2023-08-20T00:56:47;99047.19;;;23.56;100.00
18678;BME280;9469;51.114;13.914;2023-08-20T01:01:55;99049.47;;;23.50;100.00
18678;BME280;9469;51.114;13.914;2023-08-20T01:07:08;99052.63;;;23.56;100.00
18678;BME280;9469;51.114;13.914;2023-08-20T01:12:19;99059.66;;;23.64;100.00
18678;BME280;9469;51.114;13.914;2023-08-20T01:17:30;99066.53;;;23.50;100.00
18678;BME280;9469;51.114;13.914;2023-08-20T01:22:59;99061.09;;;23.50;100.00
18678;BME280;9469;51.114;13.914;2023-08-20T01:28:29;99066.59;;;23.58;100.00
18678;BME280;9469;51.114;13.914;2023-08-20T01:33:34;99075.97;;;23.67;100.00
18678;BME280;9469;51.114;13.914;2023-08-20T01:38:40;99082.31;;;23.89;100.00
18678;BME280;9469;51.114;13.914;2023-08-20T01:43:48;99081.91;;;23.87;100.00
18678;BME280;9469;51.114;13.914;2023-08-20T01:48:53;99087.25;;;23.69;100.00
18678;BME280;9469;51.114;13.914;2023-08-20T01:53:58;99097.25;;;24.16;100.00
18678;BME280;9469;51.114;13.914;2023-08-20T01:59:06;99102.41;;;24.35;100.00
18678;BME280;9469;51.114;13.914;2023-08-20T02:04:11;99103.56;;;24.34;100.00
18678;BME280;9469;51.114;13.914;2023-08-20T02:09:17;99105.03;;;24.14;100.00
18678;BME280;9469;51.114;13.914;2023-08-20T02:14:25;99105.63;;;23.90;100.00
18678;BME280;9469;51.114;13.914;2023-08-20T02:19:31;99103.25;;;23.85;100.00
18678;BME280;9469;51.114;13.914;2023-08-20T02:24:36;99112.59;;;23.91;100.00
18678;BME280;9469;51.114;13.914;2023-08-20T02:29:46;99116.63;;;24.11;100.00
18678;BME280;9469;51.114;13.914;2023-08-20T02:34:52;99117.34;;;24.01;100.00
18678;BME280;9469;51.114;13.914;2023-08-20T02:40:00;99122.13;;;24.18;100.00
18678;BME280;9469;51.114;13.914;2023-08-20T02:45:08;99126.06;;;24.28;100.00
18678;BME280;9469;51.114;13.914;2023-08-20T02:50:14;99108.00;;;23.98;100.00
18678;BME280;9469;51.114;13.914;2023-08-20T02:55:20;99103.56;;;23.73;100.00
18678;BME280;9469;51.114;13.914;2023-08-20T03:00:28;99101.59;;;23.70;100.00
18678;BME280;9469;51.114;13.914;2023-08-20T03:05:36;99100.94;;;23.83;100.00
18678;BME280;9469;51.114;13.914;2023-08-20T03:10:41;99105.97;;;23.85;100.00
18678;BME280;9469;51.114;13.914;2023-08-20T03:15:49;99111.41;;;23.88;100.00
18678;BME280;9469;51.114;13.914;2023-08-20T03:20:54;99109.81;;;23.77;100.00
18678;BME280;9469;51.114;13.914;2023-08-20T03:26:02;99107.84;;;23.77;100.00
18678;BME280;9469;51.114;13.914;2023-08-20T03:31:10;99120.06;;;24.01;100.00
18678;BME280;9469;51.114;13.914;2023-08-20T03:36:17;99125.00;;;23.85;100.00
18678;BME280;9469;51.114;13.914;2023-08-20T03:41:22;99124.03;;;23.60;100.00
18678;BME280;9469;51.114;13.914;2023-08-20T03:46:30;99127.84;;;23.51;100.00
18678;BME280;9469;51.114;13.914;2023-08-20T03:51:35;99135.84;;;23.85;100.00
18678;BME280;9469;51.114;13.914;2023-08-20T03:56:40;99131.72;;;24.01;100.00
18678;BME280;9469;51.114;13.914;2023-08-20T04:01:48;99126.13;;;23.84;100.00
18678;BME280;9469;51.114;13.914;2023-08-20T04:06:53;99130.81;;;23.87;100.00
18678;BME280;9469;51.114;13.914;2023-08-20T04:11:58;99143.06;;;24.14;100.00
18678;BME280;9469;51.114;13.914;2023-08-20T04:17:06;99151.63;;;24.16;100.00
18678;BME280;9469;51.114;13.914;2023-08-20T04:22:11;99153.94;;;24.10;100.00
18678;BME280;9469;51.114;13.914;2023-08-20T04:27:16;99170.28;;;24.21;100.00
18678;BME280;9469;51.114;13.914;2023-08-20T04:32:24;99155.78;;;23.99;100.00
18678;BME280;9469;51.114;13.914;2023-08-20T04:37:31;99161.88;;;23.86;100.00
18678;BME280;9469;51.114;13.914;2023-08-20T04:42:37;99174.34;;;23.94;100.00
18678;BME280;9469;51.114;13.914;2023-08-20T04:47:45;99176.31;;;23.97;100.00
18678;BME280;9469;51.114;13.914;2023-08-20T04:52:50;99178.28;;;24.00;100.00
18678;BME280;9469;51.114;13.914;2023-08-20T04:57:57;99175.69;;;24.10;100.00
18678;BME280;9469;51.114;13.914;2023-08-20T05:03:05;99199.66;;;24.01;100.00
18678;BME280;9469;51.114;13.914;2023-08-20T05:08:10;99197.88;;;23.76;100.00
18678;BME280;9469;51.114;13.914;2023-08-20T05:13:18;99198.31;;;23.81;100.00
18678;BME280;9469;51.114;13.914;2023-08-20T05:18:27;99203.28;;;23.72;100.00
18678;BME280;9469;51.114;13.914;2023-08-20T05:23:34;99211.25;;;23.95;100.00
18678;BME280;9469;51.114;13.914;2023-08-20T05:28:40;99210.22;;;24.10;100.00
18678;BME280;9469;51.114;13.914;2023-08-20T05:33:51;99217.91;;;24.55;100.00
18678;BME280;9469;51.114;13.914;2023-08-20T05:38:56;99222.63;;;25.97;100.00
18678;BME280;9469;51.114;13.914;2023-08-20T05:44:03;99235.72;;;25.21;100.00
18678;BME280;9469;51.114;13.914;2023-08-20T05:49:12;99232.09;;;24.92;100.00
18678;BME280;9469;51.114;13.914;2023-08-20T05:54:18;99245.66;;;24.85;100.00
18678;BME280;9469;51.114;13.914;2023-08-20T05:59:27;99239.63;;;24.52;100.00
18678;BME280;9469;51.114;13.914;2023-08-20T06:04:35;99250.63;;;24.69;100.00
18678;BME280;9469;51.114;13.914;2023-08-20T06:09:40;99251.38;;;24.70;100.00
18678;BME280;9469;51.114;13.914;2023-08-20T06:14:46;99260.63;;;24.58;100.00
18678;BME280;9469;51.114;13.914;2023-08-20T06:19:53;99257.56;;;24.60;100.00
18678;BME280;9469;51.114;13.914;2023-08-20T06:24:58;99260.31;;;24.67;100.00
18678;BME280;9469;51.114;13.914;2023-08-20T06:30:08;99268.56;;;24.77;100.00
18678;BME280;9469;51.114;13.914;2023-08-20T06:35:16;99265.50;;;24.86;100.00
18678;BME280;9469;51.114;13.914;2023-08-20T06:40:23;99257.31;;;26.18;100.00
18678;BME280;9469;51.114;13.914;2023-08-20T06:45:28;99261.09;;;26.73;100.00
18678;BME280;9469;51.114;13.914;2023-08-20T06:50:36;99260.78;;;26.01;100.00
18678;BME280;9469;51.114;13.914;2023-08-20T06:55:44;99263.06;;;25.53;100.00
18678;BME280;9469;51.114;13.914;2023-08-20T07:00:49;99279.81;;;25.66;100.00
18678;BME280;9469;51.114;13.914;2023-08-20T07:06:01;99279.03;;;25.51;100.00
18678;BME280;9469;51.114;13.914;2023-08-20T07:11:07;99285.53;;;25.32;100.00
18678;BME280;9469;51.114;13.914;2023-08-20T07:16:18;99291.41;;;25.41;100.00
18678;BME280;9469;51.114;13.914;2023-08-20T07:21:38;99299.69;;;25.87;100.00
18678;BME280;9469;51.114;13.914;2023-08-20T07:26:45;99314.09;;;25.81;100.00
18678;BME280;9469;51.114;13.914;2023-08-20T07:31:51;99307.56;;;26.52;100.00
18678;BME280;9469;51.114;13.914;2023-08-20T07:37:03;99306.69;;;25.81;100.00
18678;BME280;9469;51.114;13.914;2023-08-20T07:42:08;99317.63;;;25.88;100.00
18678;BME280;9469;51.114;13.914;2023-08-20T07:47:17;99307.56;;;26.20;100.00
18678;BME280;9469;51.114;13.914;2023-08-20T07:52:25;99307.13;;;26.68;100.00
18678;BME280;9469;51.114;13.914;2023-08-20T07:57:30;99312.31;;;27.63;100.00
18678;BME280;9469;51.114;13.914;2023-08-20T08:02:36;99311.97;;;28.19;95.80
18678;BME280;9469;51.114;13.914;2023-08-20T08:07:46;99315.31;;;27.83;97.68
18678;BME280;9469;51.114;13.914;2023-08-20T08:12:51;99311.94;;;27.57;97.45
18678;BME280;9469;51.114;13.914;2023-08-20T08:17:56;99314.84;;;27.95;97.49
18678;BME280;9469;51.114;13.914;2023-08-20T08:23:04;99321.34;;;28.18;94.90
18678;BME280;9469;51.114;13.914;2023-08-20T08:28:09;99334.22;;;28.21;95.66
18678;BME280;9469;51.114;13.914;2023-08-20T08:33:15;99339.78;;;27.38;100.00
18678;BME280;9469;51.114;13.914;2023-08-20T08:38:22;99348.94;;;27.76;99.06
18678;BME280;9469;51.114;13.914;2023-08-20T08:43:30;99348.03;;;28.00;96.06
18678;BME280;9469;51.114;13.914;2023-08-20T08:48:37;99357.22;;;28.31;95.76
18678;BME280;9469;51.114;13.914;2023-08-20T08:53:47;99347.44;;;28.33;94.82
18678;BME280;9469;51.114;13.914;2023-08-20T08:58:54;99359.28;;;27.40;100.00
18678;BME280;9469;51.114;13.914;2023-08-20T09:04:01;99363.88;;;27.57;99.49
18678;BME280;9469;51.114;13.914;2023-08-20T09:09:09;99368.47;;;27.82;97.82
18678;BME280;9469;51.114;13.914;2023-08-20T09:14:21;99374.16;;;27.08;100.00
18678;BME280;9469;51.114;13.914;2023-08-20T09:19:35;99360.53;;;27.04;100.00
18678;BME280;9469;51.114;13.914;2023-08-20T09:24:45;99367.06;;;27.31;100.00
18678;BME280;9469;51.114;13.914;2023-08-20T09:29:52;99382.00;;;26.88;100.00
18678;BME280;9469;51.114;13.914;2023-08-20T09:35:02;99381.19;;;27.01;100.00
18678;BME280;9469;51.114;13.914;2023-08-20T09:40:14;99385.03;;;27.39;100.00
18678;BME280;9469;51.114;13.914;2023-08-20T09:45:20;99381.03;;;28.85;100.00
18678;BME280;9469;51.114;13.914;2023-08-20T09:50:28;99376.94;;;28.60;100.00
18678;BME280;9469;51.114;13.914;2023-08-20T09:55:42;99377.91;;;28.32;99.74
18678;BME280;9469;51.114;13.914;2023-08-20T10:00:48;99373.25;;;29.21;96.46
18678;BME280;9469;51.114;13.914;2023-08-20T10:06:08;99393.22;;;29.55;93.71
18678;BME280;9469;51.114;13.914;2023-08-20T10:11:33;99381.91;;;29.50;92.77
18678;BME280;9469;51.114;13.914;2023-08-20T10:16:39;99382.75;;;30.34;88.52
18678;BME280;9469;51.114;13.914;2023-08-20T10:21:45;99368.59;;;29.15;90.90
18678;BME280;9469;51.114;13.914;2023-08-20T10:27:12;99368.06;;;29.94;86.97
18678;BME280;9469;51.114;13.914;2023-08-20T10:32:17;99367.34;;;29.56;89.67
18678;BME280;9469;51.114;13.914;2023-08-20T10:37:26;99362.06;;;29.39;91.09
18678;BME280;9469;51.114;13.914;2023-08-20T10:42:42;99354.69;;;29.66;87.50
18678;BME280;9469;51.114;13.914;2023-08-20T10:47:48;99347.84;;;29.51;89.91
18678;BME280;9469;51.114;13.914;2023-08-20T10:52:55;99347.81;;;29.21;90.69
18678;BME280;9469;51.114;13.914;2023-08-20T10:58:04;99343.78;;;30.66;87.68
18678;BME280;9469;51.114;13.914;2023-08-20T11:03:10;99344.50;;;30.93;82.50
18678;BME280;9469;51.114;13.914;2023-08-20T11:08:16;99340.34;;;30.38;85.39
18678;BME280;9469;51.114;13.914;2023-08-20T11:13:28;99337.00;;;30.24;84.54
18678;BME280;9469;51.114;13.914;2023-08-20T11:18:35;99331.00;;;30.79;83.24
18678;BME280;9469;51.114;13.914;2023-08-20T11:23:40;99331.00;;;31.41;79.70
18678;BME280;9469;51.114;13.914;2023-08-20T11:28:48;99328.84;;;30.90;80.86
18678;BME280;9469;51.114;13.914;2023-08-20T11:33:56;99332.09;;;30.85;81.45
18678;BME280;9469;51.114;13.914;2023-08-20T11:39:12;99321.78;;;31.32;78.36
18678;BME280;9469;51.114;13.914;2023-08-20T11:44:22;99328.03;;;30.70;78.35
18678;BME280;9469;51.114;13.914;2023-08-20T11:49:32;99322.09;;;31.53;73.52
18678;BME280;9469;51.114;13.914;2023-08-20T11:54:41;99320.41;;;31.40;74.81
18678;BME280;9469;51.114;13.914;2023-08-20T11:59:49;99317.47;;;30.91;75.04
18678;BME280;9469;51.114;13.914;2023-08-20T12:04:56;99308.84;;;31.48;73.28
18678;BME280;9469;51.114;13.914;2023-08-20T12:10:19;99314.13;;;31.39;75.44
18678;BME280;9469;51.114;13.914;2023-08-20T12:15:27;99303.28;;;31.87;73.44
18678;BME280;9469;51.114;13.914;2023-08-20T12:20:34;99304.28;;;31.61;71.05
18678;BME280;9469;51.114;13.914;2023-08-20T12:25:41;99293.66;;;31.79;70.56
18678;BME280;9469;51.114;13.914;2023-08-20T12:30:49;99287.81;;;32.26;68.62
18678;BME280;9469;51.114;13.914;2023-08-20T12:35:55;99292.69;;;31.70;69.66
18678;BME280;9469;51.114;13.914;2023-08-20T12:41:01;99292.59;;;32.09;68.83
18678;BME280;9469;51.114;13.914;2023-08-20T12:46:10;99290.78;;;31.67;71.53
18678;BME280;9469;51.114;13.914;2023-08-20T12:51:16;99286.81;;;32.04;69.34
18678;BME280;9469;51.114;13.914;2023-08-20T12:56:21;99280.75;;;31.93;69.34
18678;BME280;9469;51.114;13.914;2023-08-20T13:01:32;99271.75;;;32.24;70.47
18678;BME280;9469;51.114;13.914;2023-08-20T13:06:38;99272.47;;;32.41;70.23
18678;BME280;9469;51.114;13.914;2023-08-20T13:11:44;99258.75;;;31.93;70.14
18678;BME280;9469;51.114;13.914;2023-08-20T13:16:55;99258.72;;;32.57;70.84
18678;BME280;9469;51.114;13.914;2023-08-20T13:22:00;99254.88;;;31.74;72.38
18678;BME280;9469;51.114;13.914;2023-08-20T13:27:05;99246.84;;;32.44;68.91
18678;BME280;9469;51.114;13.914;2023-08-20T13:32:13;99250.81;;;31.78;70.41
18678;BME280;9469;51.114;13.914;2023-08-20T13:37:18;99240.28;;;32.70;69.19
18678;BME280;9469;51.114;13.914;2023-08-20T13:42:23;99246.53;;;32.71;70.10
18678;BME280;9469;51.114;13.914;2023-08-20T13:47:31;99241.69;;;32.30;70.24
18678;BME280;9469;51.114;13.914;2023-08-20T13:52:37;99242.00;;;32.48;69.57
18678;BME280;9469;51.114;13.914;2023-08-20T13:57:42;99231.56;;;31.95;70.17
18678;BME280;9469;51.114;13.914;2023-08-20T14:02:50;99230.47;;;32.08;70.17
18678;BME280;9469;51.114;13.914;2023-08-20T14:07:55;99227.53;;;32.31;70.91
18678;BME280;9469;51.114;13.914;2023-08-20T14:13:00;99224.28;;;32.04;72.34
18678;BME280;9469;51.114;13.914;2023-08-20T14:18:09;99217.59;;;32.50;69.41
18678;BME280;9469;51.114;13.914;2023-08-20T14:23:18;99212.16;;;32.63;68.22
18678;BME280;9469;51.114;13.914;2023-08-20T14:28:23;99215.75;;;31.50;70.48
18678;BME280;9469;51.114;13.914;2023-08-20T14:33:31;99206.47;;;31.93;69.39
18678;BME280;9469;51.114;13.914;2023-08-20T14:38:36;99199.75;;;32.26;69.88
18678;BME280;9469;51.114;13.914;2023-08-20T14:43:43;99199.88;;;32.35;68.77
18678;BME280;9469;51.114;13.914;2023-08-20T14:48:51;99190.69;;;32.70;68.68
18678;BME280;9469;51.114;13.914;2023-08-20T14:53:57;99196.69;;;32.36;71.07
18678;BME280;9469;51.114;13.914;2023-08-20T14:59:05;99195.38;;;32.57;69.66
18678;BME280;9469;51.114;13.914;2023-08-20T15:04:14;99190.59;;;32.45;71.23
18678;BME280;9469;51.114;13.914;2023-08-20T15:09:19;99197.09;;;32.22;71.33
18678;BME280;9469;51.114;13.914;2023-08-20T15:14:25;99195.16;;;32.07;71.77
18678;BME280;9469;51.114;13.914;2023-08-20T15:19:34;99192.56;;;32.16;71.20
18678;BME280;9469;51.114;13.914;2023-08-20T15:24:39;99189.78;;;31.83;74.11
18678;BME280;9469;51.114;13.914;2023-08-20T15:29:45;99194.66;;;31.44;76.36
18678;BME280;9469;51.114;13.914;2023-08-20T15:34:52;99208.03;;;31.61;77.64
18678;BME280;9469;51.114;13.914;2023-08-20T15:39:58;99208.44;;;31.60;76.98
18678;BME280;9469;51.114;13.914;2023-08-20T15:45:21;99199.78;;;31.77;77.54
18678;BME280;9469;51.114;13.914;2023-08-20T15:50:32;99206.53;;;31.89;76.10
18678;BME280;9469;51.114;13.914;2023-08-20T15:55:37;99205.53;;;31.31;77.35
18678;BME280;9469;51.114;13.914;2023-08-20T16:00:45;99219.28;;;31.31;77.10
18678;BME280;9469;51.114;13.914;2023-08-20T16:05:52;99211.81;;;31.32;77.94
18678;BME280;9469;51.114;13.914;2023-08-20T16:10:58;99212.66;;;30.93;79.30
18678;BME280;9469;51.114;13.914;2023-08-20T16:16:05;99198.66;;;31.23;78.39
18678;BME280;9469;51.114;13.914;2023-08-20T16:21:14;99195.78;;;31.10;79.04
18678;BME280;9469;51.114;13.914;2023-08-20T16:26:19;99198.56;;;31.27;78.52
18678;BME280;9469;51.114;13.914;2023-08-20T16:31:25;99198.75;;;31.36;77.76
18678;BME280;9469;51.114;13.914;2023-08-20T16:36:35;99204.31;;;31.16;79.55
18678;BME280;9469;51.114;13.914;2023-08-20T16:41:45;99213.19;;;31.40;78.49
18678;BME280;9469;51.114;13.914;2023-08-20T16:46:52;99208.53;;;31.01;80.21
18678;BME280;9469;51.114;13.914;2023-08-20T16:52:00;99214.53;;;30.76;81.54
18678;BME280;9469;51.114;13.914;2023-08-20T16:57:05;99213.72;;;30.36;83.45
18678;BME280;9469;51.114;13.914;2023-08-20T17:02:11;99218.13;;;30.73;80.99
18678;BME280;9469;51.114;13.914;2023-08-20T17:07:18;99215.13;;;30.44;82.80
18678;BME280;9469;51.114;13.914;2023-08-20T17:12:26;99216.19;;;30.93;81.29
18678;BME280;9469;51.114;13.914;2023-08-20T17:17:31;99217.69;;;30.55;79.42
18678;BME280;9469;51.114;13.914;2023-08-20T17:22:40;99217.03;;;30.24;80.16
18678;BME280;9469;51.114;13.914;2023-08-20T17:27:46;99231.63;;;29.98;81.01
18678;BME280;9469;51.114;13.914;2023-08-20T17:32:54;99216.66;;;30.03;82.31
18678;BME280;9469;51.114;13.914;2023-08-20T17:38:02;99233.41;;;29.85;81.66
18678;BME280;9469;51.114;13.914;2023-08-20T17:43:08;99243.41;;;29.68;82.25
18678;BME280;9469;51.114;13.914;2023-08-20T17:48:13;99212.66;;;29.57;78.57
18678;BME280;9469;51.114;13.914;2023-08-20T17:53:29;99201.47;;;29.45;80.51
18678;BME280;9469;51.114;13.914;2023-08-20T17:58:34;99199.94;;;29.44;81.47
18678;BME280;9469;51.114;13.914;2023-08-20T18:03:39;99188.44;;;28.95;83.21
18678;BME280;9469;51.114;13.914;2023-08-20T18:08:48;99187.97;;;29.00;84.20
18678;BME280;9469;51.114;13.914;2023-08-20T18:13:53;99200.72;;;29.14;83.08
18678;BME280;9469;51.114;13.914;2023-08-20T18:19:00;99214.22;;;28.27;88.48
18678;BME280;9469;51.114;13.914;2023-08-20T18:24:08;99203.78;;;28.52;88.53
18678;BME280;9469;51.114;13.914;2023-08-20T18:29:18;99213.34;;;28.74;86.94
18678;BME280;9469;51.114;13.914;2023-08-20T18:34:24;99225.47;;;28.73;87.67
18678;BME280;9469;51.114;13.914;2023-08-20T18:39:38;99232.22;;;28.65;87.54
18678;BME280;9469;51.114;13.914;2023-08-20T18:44:44;99248.84;;;28.40;89.70
18678;BME280;9469;51.114;13.914;2023-08-20T18:49:51;99249.63;;;28.41;89.97
18678;BME280;9469;51.114;13.914;2023-08-20T18:55:01;99257.72;;;28.11;92.07
18678;BME280;9469;51.114;13.914;2023-08-20T19:00:10;99257.53;;;27.81;93.68
18678;BME280;9469;51.114;13.914;2023-08-20T19:05:16;99263.91;;;27.63;94.68
18678;BME280;9469;51.114;13.914;2023-08-20T19:10:24;99272.31;;;27.87;94.31
18678;BME280;9469;51.114;13.914;2023-08-20T19:15:30;99290.50;;;27.52;96.72
18678;BME280;9469;51.114;13.914;2023-08-20T19:20:46;99295.03;;;27.84;94.68
18678;BME280;9469;51.114;13.914;2023-08-20T19:25:58;99289.44;;;27.98;93.55
18678;BME280;9469;51.114;13.914;2023-08-20T19:31:04;99296.91;;;27.90;94.16
18678;BME280;9469;51.114;13.914;2023-08-20T19:36:09;99287.34;;;27.61;95.93
18678;BME280;9469;51.114;13.914;2023-08-20T19:41:18;99286.44;;;27.82;94.79
18678;BME280;9469;51.114;13.914;2023-08-20T19:46:23;99287.97;;;27.86;94.39
18678;BME280;9469;51.114;13.914;2023-08-20T19:51:31;99300.66;;;27.52;96.56
18678;BME280;9469;51.114;13.914;2023-08-20T19:56:39;99304.47;;;27.68;95.65
18678;BME280;9469;51.114;13.914;2023-08-20T20:01:45;99288.31;;;27.16;99.23
18678;BME280;9469;51.114;13.914;2023-08-20T20:06:51;99303.22;;;26.90;100.00
18678;BME280;9469;51.114;13.914;2023-08-20T20:12:20;99295.03;;;26.90;100.00
18678;BME280;9469;51.114;13.914;2023-08-20T20:17:28;99300.13;;;26.70;100.00
18678;BME280;9469;51.114;13.914;2023-08-20T20:22:34;99311.78;;;26.92;100.00
18678;BME280;9469;51.114;13.914;2023-08-20T20:27:42;99344.97;;;26.52;100.00
18678;BME280;9469;51.114;13.914;2023-08-20T20:32:47;99357.03;;;26.40;100.00
18678;BME280;9469;51.114;13.914;2023-08-20T20:37:52;99355.47;;;26.21;100.00
18678;BME280;9469;51.114;13.914;2023-08-20T20:43:00;99338.25;;;25.96;100.00
18678;BME280;9469;51.114;13.914;2023-08-20T20:48:07;99335.91;;;25.77;100.00
18678;BME280;9469;51.114;13.914;2023-08-20T20:53:12;99325.59;;;25.35;100.00
18678;BME280;9469;51.114;13.914;2023-08-20T20:58:20;99336.78;;;26.09;100.00
18678;BME280;9469;51.114;13.914;2023-08-20T21:03:26;99333.19;;;25.84;100.00
18678;BME280;9469;51.114;13.914;2023-08-20T21:08:33;99341.00;;;25.93;100.00
18678;BME280;9469;51.114;13.914;2023-08-20T21:13:40;99333.75;;;25.28;100.00
18678;BME280;9469;51.114;13.914;2023-08-20T21:18:45;99327.78;;;25.02;100.00
18678;BME280;9469;51.114;13.914;2023-08-20T21:23:51;99339.97;;;25.29;100.00
18678;BME280;9469;51.114;13.914;2023-08-20T21:29:00;99341.25;;;25.49;100.00
18678;BME280;9469;51.114;13.914;2023-08-20T21:34:06;99341.13;;;25.24;100.00
18678;BME280;9469;51.114;13.914;2023-08-20T21:39:11;99352.06;;;25.35;100.00
18678;BME280;9469;51.114;13.914;2023-08-20T21:44:19;99354.59;;;25.79;100.00
18678;BME280;9469;51.114;13.914;2023-08-20T21:49:24;99368.25;;;25.07;100.00
18678;BME280;9469;51.114;13.914;2023-08-20T21:54:29;99389.31;;;24.66;100.00
18678;BME280;9469;51.114;13.914;2023-08-20T21:59:37;99405.25;;;25.15;100.00
18678;BME280;9469;51.114;13.914;2023-08-20T22:04:42;99391.91;;;24.52;100.00
18678;BME280;9469;51.114;13.914;2023-08-20T22:09:48;99395.72;;;24.40;100.00
18678;BME280;9469;51.114;13.914;2023-08-20T22:14:56;99395.97;;;24.72;100.00
18678;BME280;9469;51.114;13.914;2023-08-20T22:20:02;99366.41;;;23.86;100.00
18678;BME280;9469;51.114;13.914;2023-08-20T22:25:11;99352.91;;;23.93;100.00
18678;BME280;9469;51.114;13.914;2023-08-20T22:30:21;99348.44;;;24.11;100.00
18678;BME280;9469;51.114;13.914;2023-08-20T22:35:28;99351.22;;;24.18;100.00
18678;BME280;9469;51.114;13.914;2023-08-20T22:40:36;99354.56;;;24.45;100.00
18678;BME280;9469;51.114;13.914;2023-08-20T22:45:45;99359.44;;;24.73;100.00
18678;BME280;9469;51.114;13.914;2023-08-20T22:50:51;99360.41;;;24.47;100.00
18678;BME280;9469;51.114;13.914;2023-08-20T22:55:56;99374.28;;;24.79;100.00
18678;BME280;9469;51.114;13.914;2023-08-20T23:01:04;99365.56;;;24.15;100.00
18678;BME280;9469;51.114;13.914;2023-08-20T23:06:10;99350.81;;;23.80;100.00
18678;BME280;9469;51.114;13.914;2023-08-20T23:11:16;99347.53;;;24.37;100.00
18678;BME280;9469;51.114;13.914;2023-08-20T23:16:24;99350.09;;;24.23;100.00
18678;BME280;9469;51.114;13.914;2023-08-20T23:21:30;99355.88;;;24.18;100.00
18678;BME280;9469;51.114;13.914;2023-08-20T23:26:35;99341.81;;;24.09;100.00
18678;BME280;9469;51.114;13.914;2023-08-20T23:31:42;99343.94;;;23.93;100.00
18678;BME280;9469;51.114;13.914;2023-08-20T23:36:48;99343.16;;;23.89;100.00
18678;BME280;9469;51.114;13.914;2023-08-20T23:41:53;99346.63;;;23.52;100.00
18678;BME280;9469;51.114;13.914;2023-08-20T23:47:05;99336.88;;;23.81;100.00
18678;BME280;9469;51.114;13.914;2023-08-20T23:52:10;99343.97;;;23.56;100.00
18678;BME280;9469;51.114;13.914;2023-08-20T23:57:15;99343.16;;;23.89;100.00
